createdAt,value
2023-08-21T00:01:29.405Z,23.05
2023-08-21T00:03:57.017Z,23.09
2023-08-21T00:06:24.585Z,23.09
2023-08-21T00:08:53.495Z,22.94
2023-08-21T00:11:21.045Z,23.00
2023-08-21T00:13:50.496Z,23.00
2023-08-21T00:16:18.358Z,23.05
2023-08-21T00:18:45.902Z,22.99
2023-08-21T00:21:13.574Z,22.73
2023-08-21T00:23:41.130Z,22.81
2023-08-21T00:26:10.005Z,22.85
2023-08-21T00:28:37.666Z,22.79
2023-08-21T00:31:05.570Z,22.76
2023-08-21T00:33:33.437Z,22.75
2023-08-21T00:36:01.233Z,22.72
2023-08-21T00:38:28.828Z,22.70
2023-08-21T00:40:56.410Z,22.66
2023-08-21T00:43:25.374Z,22.64
2023-08-21T00:45:53.010Z,22.64
2023-08-21T00:48:20.864Z,22.62
2023-08-21T00:50:48.628Z,22.65
2023-08-21T00:53:16.381Z,22.59
2023-08-21T00:55:45.636Z,22.68
2023-08-21T00:58:13.975Z,22.58
2023-08-21T01:00:43.818Z,22.56
2023-08-21T01:03:11.599Z,22.50
2023-08-21T01:05:39.249Z,22.44
2023-08-21T01:08:09.140Z,22.49
2023-08-21T01:10:44.210Z,22.48
2023-08-21T01:13:21.893Z,22.48
2023-08-21T01:15:52.707Z,22.41
2023-08-21T01:18:20.972Z,22.43
2023-08-21T01:20:49.497Z,22.40
2023-08-21T01:23:30.085Z,22.30
2023-08-21T01:25:57.794Z,22.38
2023-08-21T01:28:25.561Z,22.25
2023-08-21T01:30:55.314Z,22.30
2023-08-21T01:33:23.892Z,22.25
2023-08-21T01:35:52.194Z,22.22
2023-08-21T01:38:20.924Z,22.09
2023-08-21T01:40:50.249Z,22.15
2023-08-21T01:43:17.795Z,22.08
2023-08-21T01:45:47.095Z,22.03
2023-08-21T01:48:14.745Z,22.03
2023-08-21T01:50:42.344Z,21.94
2023-08-21T01:53:09.897Z,22.02
2023-08-21T01:55:37.440Z,21.95
2023-08-21T01:58:06.666Z,21.90
2023-08-21T02:00:34.424Z,21.87
2023-08-21T02:03:02.093Z,21.85
2023-08-21T02:05:30.061Z,21.84
2023-08-21T02:07:57.610Z,21.83
2023-08-21T02:10:25.219Z,21.79
2023-08-21T02:12:52.976Z,21.79
2023-08-21T02:15:23.114Z,21.78
2023-08-21T02:17:50.695Z,21.74
2023-08-21T02:20:18.379Z,21.71
2023-08-21T02:22:46.932Z,21.71
2023-08-21T02:25:14.500Z,21.68
2023-08-21T02:27:42.720Z,21.60
2023-08-21T02:30:10.643Z,21.60
2023-08-21T02:32:41.607Z,21.64
2023-08-21T02:35:09.863Z,21.66
2023-08-21T02:37:39.938Z,21.64
2023-08-21T02:40:09.703Z,21.71
2023-08-21T02:42:37.842Z,21.61
2023-08-21T02:45:09.261Z,21.52
2023-08-21T02:47:37.311Z,21.61
2023-08-21T02:50:07.026Z,21.66
2023-08-21T02:52:35.135Z,21.50
2023-08-21T02:55:03.069Z,21.53
2023-08-21T02:57:30.668Z,21.52
2023-08-21T02:59:58.292Z,21.43
2023-08-21T03:02:25.953Z,21.49
2023-08-21T03:04:53.711Z,21.61
2023-08-21T03:07:22.643Z,21.63
2023-08-21T03:09:50.928Z,21.43
2023-08-21T03:12:18.573Z,21.40
2023-08-21T03:14:46.089Z,21.39
2023-08-21T03:17:13.728Z,21.37
2023-08-21T03:19:41.300Z,21.39
2023-08-21T03:22:09.009Z,21.35
2023-08-21T03:24:37.979Z,21.22
2023-08-21T03:27:05.787Z,21.22
2023-08-21T03:29:33.398Z,21.09
2023-08-21T03:32:01.390Z,21.22
2023-08-21T03:34:28.936Z,21.29
2023-08-21T03:37:01.372Z,21.26
2023-08-21T03:39:32.051Z,21.01
2023-08-21T03:42:00.935Z,21.07
2023-08-21T03:44:28.470Z,21.07
2023-08-21T03:46:56.012Z,21.08
2023-08-21T03:49:23.613Z,21.08
2023-08-21T03:51:51.139Z,21.06
2023-08-21T03:54:18.681Z,21.02
2023-08-21T03:56:46.219Z,21.01
2023-08-21T03:59:15.122Z,20.96
2023-08-21T04:01:42.693Z,21.03
2023-08-21T04:04:11.379Z,20.95
2023-08-21T04:06:38.949Z,20.93
2023-08-21T04:09:07.447Z,20.94
2023-08-21T04:11:35.179Z,20.93
2023-08-21T04:14:03.051Z,20.96
2023-08-21T04:16:32.065Z,20.92
2023-08-21T04:18:59.968Z,20.83
2023-08-21T04:21:27.521Z,20.77
2023-08-21T04:23:55.443Z,20.85
2023-08-21T04:26:23.006Z,20.91
2023-08-21T04:28:50.542Z,20.88
2023-08-21T04:31:18.326Z,20.86
2023-08-21T04:33:50.581Z,20.82
2023-08-21T04:36:18.483Z,20.97
2023-08-21T04:38:49.308Z,20.85
2023-08-21T04:41:17.043Z,20.78
2023-08-21T04:43:47.106Z,20.77
2023-08-21T04:46:14.697Z,20.79
2023-08-21T04:48:44.239Z,20.87
2023-08-21T04:51:15.992Z,20.82
2023-08-21T04:53:43.768Z,20.88
2023-08-21T04:56:15.964Z,20.93
2023-08-21T04:58:44.810Z,20.94
2023-08-21T05:01:13.245Z,20.91
2023-08-21T05:03:45.429Z,20.83
2023-08-21T05:06:15.001Z,20.96
2023-08-21T05:08:42.668Z,21.03
2023-08-21T05:11:11.439Z,21.10
2023-08-21T05:13:41.045Z,21.13
2023-08-21T05:16:11.907Z,21.18
2023-08-21T05:18:41.635Z,21.16
2023-08-21T05:21:09.477Z,21.17
2023-08-21T05:23:39.212Z,21.11
2023-08-21T05:26:09.508Z,21.15
2023-08-21T05:28:37.216Z,21.16
2023-08-21T05:31:04.819Z,21.23
2023-08-21T05:33:46.286Z,21.20
2023-08-21T05:36:14.049Z,21.34
2023-08-21T05:38:43.029Z,21.38
2023-08-21T05:41:11.484Z,21.39
2023-08-21T05:43:40.618Z,21.38
2023-08-21T05:46:08.231Z,21.46
2023-08-21T05:48:35.799Z,21.45
2023-08-21T05:51:04.235Z,21.51
2023-08-21T05:53:32.888Z,21.52
2023-08-21T05:56:02.610Z,21.63
2023-08-21T05:58:32.607Z,21.68
2023-08-21T06:01:00.450Z,21.66
2023-08-21T06:03:28.541Z,21.75
2023-08-21T06:06:31.469Z,21.75
2023-08-21T06:08:59.041Z,21.86
2023-08-21T06:11:28.202Z,21.89
2023-08-21T06:13:55.733Z,21.90
2023-08-21T06:16:23.316Z,21.97
2023-08-21T06:18:51.211Z,22.09
2023-08-21T06:21:18.824Z,22.07
2023-08-21T06:23:46.385Z,22.16
2023-08-21T06:26:13.966Z,22.21
2023-08-21T06:28:43.923Z,22.31
2023-08-21T06:31:11.576Z,22.37
2023-08-21T06:33:39.167Z,22.46
2023-08-21T06:36:06.975Z,22.48
2023-08-21T06:38:37.363Z,22.52
2023-08-21T06:41:10.365Z,22.61
2023-08-21T06:43:42.579Z,22.73
2023-08-21T06:46:12.727Z,22.77
2023-08-21T06:48:41.165Z,22.85
2023-08-21T06:51:08.722Z,22.92
2023-08-21T06:53:36.280Z,23.03
2023-08-21T06:56:04.074Z,23.12
2023-08-21T06:58:32.298Z,23.20
2023-08-21T07:00:59.998Z,23.23
2023-08-21T07:03:28.886Z,23.29
2023-08-21T07:05:57.316Z,23.38
2023-08-21T07:08:25.242Z,23.45
2023-08-21T07:10:53.226Z,23.47
2023-08-21T07:13:21.119Z,23.58
2023-08-21T07:15:48.773Z,23.67
2023-08-21T07:18:16.630Z,23.77
2023-08-21T07:20:45.513Z,23.89
2023-08-21T07:23:13.066Z,24.05
2023-08-21T07:25:40.582Z,24.10
2023-08-21T07:28:08.119Z,24.18
2023-08-21T07:30:38.621Z,24.26
2023-08-21T07:33:06.421Z,24.31
2023-08-21T07:35:34.497Z,24.39
2023-08-21T07:38:03.428Z,24.51
2023-08-21T07:40:31.024Z,24.65
2023-08-21T07:42:58.627Z,24.81
2023-08-21T07:45:26.174Z,24.88
2023-08-21T07:48:04.861Z,24.92
2023-08-21T07:50:40.619Z,24.97
2023-08-21T07:53:09.513Z,25.11
2023-08-21T07:55:37.034Z,25.10
2023-08-21T07:58:05.506Z,25.20
2023-08-21T08:00:33.222Z,25.26
2023-08-21T08:03:00.874Z,25.36
2023-08-21T08:05:28.598Z,25.49
2023-08-21T08:07:56.362Z,25.61
2023-08-21T08:10:25.523Z,25.74
2023-08-21T08:12:53.029Z,25.79
2023-08-21T08:15:20.673Z,25.87
2023-08-21T08:17:48.245Z,25.97
2023-08-21T08:20:15.784Z,26.00
2023-08-21T08:22:43.417Z,26.09
2023-08-21T08:25:11.195Z,26.24
2023-08-21T08:27:40.086Z,26.27
2023-08-21T08:30:09.445Z,26.24
2023-08-21T08:32:37.259Z,26.35
2023-08-21T08:35:05.327Z,26.42
2023-08-21T08:37:32.860Z,26.61
2023-08-21T08:40:00.383Z,26.64
2023-08-21T08:42:27.912Z,26.60
2023-08-21T08:44:58.530Z,26.71
2023-08-21T08:47:26.595Z,26.78
2023-08-21T08:49:56.392Z,26.81
2023-08-21T08:52:24.753Z,26.86
2023-08-21T08:54:52.353Z,26.93
2023-08-21T08:57:20.056Z,27.05
2023-08-21T08:59:47.557Z,27.06
2023-08-21T09:02:17.072Z,27.13
2023-08-21T09:04:44.601Z,27.18
2023-08-21T09:07:12.779Z,27.25
2023-08-21T09:09:40.631Z,27.34
2023-08-21T09:12:12.649Z,27.39
2023-08-21T09:14:41.028Z,27.45
2023-08-21T09:17:08.709Z,27.43
2023-08-21T09:19:37.609Z,27.51
2023-08-21T09:22:14.747Z,27.73
2023-08-21T09:24:44.383Z,27.85
2023-08-21T09:27:15.357Z,27.80
2023-08-21T09:29:43.251Z,27.83
2023-08-21T09:32:10.863Z,28.00
2023-08-21T09:34:39.858Z,28.10
2023-08-21T09:37:08.916Z,28.11
2023-08-21T09:39:37.142Z,28.26
2023-08-21T09:42:07.078Z,28.31
2023-08-21T09:44:37.902Z,28.41
2023-08-21T09:47:06.545Z,28.23
2023-08-21T09:49:34.442Z,28.27
2023-08-21T09:52:03.736Z,28.27
2023-08-21T09:54:32.159Z,28.10
2023-08-21T09:57:02.824Z,28.18
2023-08-21T09:59:31.210Z,28.59
2023-08-21T10:02:00.934Z,28.54
2023-08-21T10:04:30.030Z,28.74
2023-08-21T10:06:58.241Z,28.86
2023-08-21T10:09:29.205Z,29.32
2023-08-21T10:11:57.584Z,29.47
2023-08-21T10:14:25.577Z,29.44
2023-08-21T10:16:55.237Z,29.44
2023-08-21T10:19:22.867Z,29.27
2023-08-21T10:21:51.131Z,29.69
2023-08-21T10:24:35.681Z,29.59
2023-08-21T10:27:03.711Z,30.14
2023-08-21T10:29:32.276Z,30.55
2023-08-21T10:32:03.852Z,30.87
2023-08-21T10:34:35.309Z,30.93
2023-08-21T10:37:08.467Z,30.48
2023-08-21T10:39:39.179Z,31.04
2023-08-21T10:42:07.502Z,31.16
2023-08-21T10:44:38.720Z,31.20
2023-08-21T10:47:16.010Z,31.11
2023-08-21T10:49:43.547Z,31.13
2023-08-21T10:52:13.836Z,31.30
2023-08-21T10:54:46.425Z,31.35
2023-08-21T10:57:14.018Z,32.09
2023-08-21T10:59:51.066Z,32.42
2023-08-21T11:02:18.628Z,32.49
2023-08-21T11:04:46.307Z,32.95
2023-08-21T11:07:14.039Z,32.24
2023-08-21T11:09:41.580Z,32.48
2023-08-21T11:12:11.847Z,32.55
2023-08-21T11:14:39.755Z,33.20
2023-08-21T11:17:07.632Z,33.00
2023-08-21T11:19:35.996Z,33.29
2023-08-21T11:22:04.694Z,33.88
2023-08-21T11:24:32.868Z,34.08
2023-08-21T11:27:00.498Z,35.27
2023-08-21T11:29:29.664Z,35.39
2023-08-21T11:31:57.210Z,35.06
2023-08-21T11:34:24.774Z,34.41
2023-08-21T11:36:52.452Z,34.70
2023-08-21T11:39:20.007Z,34.47
2023-08-21T11:41:57.019Z,34.80
2023-08-21T11:44:24.633Z,36.32
2023-08-21T11:46:54.884Z,37.45
2023-08-21T11:49:23.511Z,36.24
2023-08-21T11:51:51.234Z,35.74
2023-08-21T11:54:19.503Z,36.83
2023-08-21T11:56:48.867Z,36.37
2023-08-21T11:59:23.335Z,35.40
2023-08-21T12:01:52.271Z,35.17
2023-08-21T12:04:21.248Z,33.78
2023-08-21T12:06:48.873Z,33.78
2023-08-21T12:09:16.612Z,33.92
2023-08-21T12:11:44.133Z,33.36
2023-08-21T12:14:11.664Z,32.76
2023-08-21T12:16:40.267Z,32.35
2023-08-21T12:19:10.402Z,31.92
2023-08-21T12:21:39.697Z,33.24
2023-08-21T12:24:07.463Z,34.75
2023-08-21T12:26:44.734Z,34.69
2023-08-21T12:29:16.285Z,33.89
2023-08-21T12:31:43.880Z,33.82
2023-08-21T12:34:11.562Z,36.04
2023-08-21T12:36:40.575Z,36.22
2023-08-21T12:39:09.978Z,36.69
2023-08-21T12:41:37.955Z,37.19
2023-08-21T12:44:05.662Z,37.93
2023-08-21T12:46:33.290Z,39.25
2023-08-21T12:49:02.381Z,39.35
2023-08-21T12:51:29.918Z,37.04
2023-08-21T12:53:58.964Z,37.53
2023-08-21T12:56:26.525Z,38.37
2023-08-21T12:58:54.202Z,37.92
2023-08-21T13:01:21.801Z,37.19
2023-08-21T13:03:49.452Z,36.43
2023-08-21T13:06:17.013Z,34.68
2023-08-21T13:08:44.551Z,34.67
2023-08-21T13:11:13.410Z,36.49
2023-08-21T13:13:41.062Z,36.46
2023-08-21T13:16:08.668Z,35.41
2023-08-21T13:18:36.276Z,35.04
2023-08-21T13:21:03.806Z,36.05
2023-08-21T13:23:32.105Z,35.20
2023-08-21T13:25:59.661Z,34.09
2023-08-21T13:28:28.557Z,33.23
2023-08-21T13:30:56.197Z,32.94
2023-08-21T13:33:23.762Z,33.08
2023-08-21T13:35:51.369Z,33.19
2023-08-21T13:38:18.892Z,34.50
2023-08-21T13:40:46.497Z,33.88
2023-08-21T13:43:14.024Z,35.36
2023-08-21T13:45:44.020Z,36.41
2023-08-21T13:48:11.616Z,37.69
2023-08-21T13:50:39.168Z,38.19
2023-08-21T13:53:06.691Z,39.70
2023-08-21T13:55:34.216Z,38.37
2023-08-21T13:58:01.712Z,38.99
2023-08-21T14:00:29.253Z,39.18
2023-08-21T14:02:58.176Z,40.02
2023-08-21T14:05:27.287Z,40.81
2023-08-21T14:07:55.060Z,41.48
2023-08-21T14:10:22.596Z,40.21
2023-08-21T14:12:50.108Z,38.97
2023-08-21T14:15:19.148Z,38.56
2023-08-21T14:17:46.827Z,37.96
2023-08-21T14:20:15.710Z,38.55
2023-08-21T14:22:43.292Z,38.92
2023-08-21T14:25:11.532Z,36.83
2023-08-21T14:27:39.343Z,35.77
2023-08-21T14:30:09.051Z,34.89
2023-08-21T14:32:38.778Z,33.90
2023-08-21T14:35:08.325Z,33.18
2023-08-21T14:37:37.351Z,33.46
2023-08-21T14:40:08.502Z,34.38
2023-08-21T14:42:36.107Z,35.11
2023-08-21T14:45:04.718Z,35.58
2023-08-21T14:47:32.287Z,36.32
2023-08-21T14:49:59.938Z,36.61
2023-08-21T14:52:27.544Z,36.73
2023-08-21T14:54:56.421Z,36.89
2023-08-21T14:57:23.943Z,37.38
2023-08-21T14:59:51.679Z,37.49
2023-08-21T15:02:19.194Z,37.48
2023-08-21T15:04:46.744Z,37.34
2023-08-21T15:07:13.286Z,37.33
2023-08-21T15:09:40.798Z,37.53
2023-08-21T15:12:10.681Z,37.35
2023-08-21T15:14:38.335Z,37.33
2023-08-21T15:19:40.134Z,36.93
2023-08-21T15:22:07.748Z,36.85
2023-08-21T15:24:35.272Z,36.53
2023-08-21T15:27:03.195Z,36.40
2023-08-21T15:29:32.056Z,35.88
2023-08-21T15:31:59.612Z,35.55
2023-08-21T15:34:27.153Z,35.84
2023-08-21T15:39:33.619Z,36.42
2023-08-21T15:42:01.157Z,36.31
2023-08-21T15:44:28.736Z,36.48
2023-08-21T15:47:16.712Z,36.33
2023-08-21T15:49:43.727Z,36.52
2023-08-21T15:52:12.590Z,36.52
2023-08-21T15:54:41.657Z,36.38
2023-08-21T15:57:09.240Z,36.20
2023-08-21T15:59:36.788Z,36.20
2023-08-21T16:02:04.590Z,35.92
2023-08-21T16:04:32.176Z,35.76
2023-08-21T16:06:59.676Z,35.50
2023-08-21T16:09:27.201Z,36.08
2023-08-21T16:11:56.130Z,35.66
2023-08-21T16:14:23.887Z,35.63
2023-08-21T16:16:51.845Z,35.64
2023-08-21T16:19:19.655Z,35.68
2023-08-21T16:21:48.506Z,35.39
2023-08-21T16:24:16.031Z,34.96
2023-08-21T16:26:43.956Z,35.24
2023-08-21T16:29:15.477Z,34.68
2023-08-21T16:31:43.005Z,34.09
2023-08-21T16:34:10.565Z,33.83
2023-08-21T16:36:38.087Z,33.72
2023-08-21T16:39:05.693Z,33.43
2023-08-21T16:41:33.234Z,33.30
2023-08-21T16:44:00.768Z,33.31
2023-08-21T16:46:29.654Z,32.91
2023-08-21T16:48:57.155Z,32.70
2023-08-21T16:51:24.744Z,32.56
2023-08-21T16:53:52.259Z,32.29
2023-08-21T16:56:19.775Z,31.85
2023-08-21T16:58:47.284Z,31.79
2023-08-21T17:01:14.988Z,31.76
2023-08-21T17:03:43.941Z,31.56
2023-08-21T17:06:11.577Z,31.52
2023-08-21T17:08:39.092Z,31.35
2023-08-21T17:11:06.678Z,31.24
2023-08-21T17:13:34.212Z,31.39
2023-08-21T17:16:01.812Z,31.35
2023-08-21T17:18:29.343Z,31.44
2023-08-21T17:20:58.193Z,31.47
2023-08-21T17:23:25.708Z,31.34
2023-08-21T17:25:54.947Z,31.17
2023-08-21T17:28:22.503Z,31.18
2023-08-21T17:30:50.331Z,31.03
2023-08-21T17:33:17.889Z,30.89
2023-08-21T17:35:45.409Z,30.79
2023-08-21T17:38:14.250Z,30.68
2023-08-21T17:40:42.089Z,30.69
2023-08-21T17:43:09.627Z,30.68
2023-08-21T17:45:37.141Z,30.64
2023-08-21T17:48:05.269Z,30.64
2023-08-21T17:50:32.784Z,30.59
2023-08-21T17:53:03.822Z,30.56
2023-08-21T17:55:33.590Z,30.49
2023-08-21T17:58:01.230Z,30.64
2023-08-21T18:00:28.752Z,30.48
2023-08-21T18:02:56.298Z,30.18
2023-08-21T18:05:24.033Z,30.15
2023-08-21T18:07:51.611Z,30.20
2023-08-21T18:10:19.254Z,30.18
2023-08-21T18:12:48.101Z,29.73
2023-08-21T18:15:16.257Z,29.43
2023-08-21T18:17:44.276Z,29.32
2023-08-21T18:20:12.300Z,29.44
2023-08-21T18:22:39.925Z,29.23
2023-08-21T18:25:07.674Z,29.31
2023-08-21T18:27:35.344Z,29.31
2023-08-21T18:30:05.386Z,29.32
2023-08-21T18:32:33.036Z,29.19
2023-08-21T18:35:02.211Z,29.21
2023-08-21T18:37:29.757Z,29.15
2023-08-21T18:39:57.288Z,29.00
2023-08-21T18:42:24.801Z,28.87
2023-08-21T18:44:52.349Z,28.66
2023-08-21T18:47:26.322Z,28.47
2023-08-21T18:49:54.881Z,28.28
2023-08-21T18:52:22.447Z,28.17
2023-08-21T18:54:49.953Z,27.97
2023-08-21T18:57:17.536Z,28.34
2023-08-21T18:59:45.052Z,28.12
2023-08-21T19:02:12.806Z,27.97
2023-08-21T19:04:42.126Z,27.83
2023-08-21T19:07:09.677Z,27.96
2023-08-21T19:09:37.180Z,28.09
2023-08-21T19:12:04.992Z,27.81
2023-08-21T19:14:32.535Z,27.81
2023-08-21T19:17:00.132Z,27.72
2023-08-21T19:19:27.630Z,27.56
2023-08-21T19:21:56.495Z,27.73
2023-08-21T19:24:24.106Z,27.79
2023-08-21T19:26:51.655Z,27.83
2023-08-21T19:29:19.193Z,27.53
2023-08-21T19:31:46.976Z,27.49
2023-08-21T19:34:14.504Z,27.65
2023-08-21T19:36:42.173Z,27.68
2023-08-21T19:39:11.070Z,27.24
2023-08-21T19:41:38.590Z,27.11
2023-08-21T19:44:06.808Z,27.07
2023-08-21T19:46:34.565Z,27.01
2023-08-21T19:49:02.107Z,27.20
2023-08-21T19:51:29.809Z,26.98
2023-08-21T19:53:57.521Z,26.89
2023-08-21T19:56:27.547Z,26.83
2023-08-21T19:58:55.105Z,27.00
2023-08-21T20:01:22.677Z,26.86
2023-08-21T20:03:50.351Z,26.78
2023-08-21T20:06:18.000Z,26.71
2023-08-21T20:08:45.520Z,26.73
2023-08-21T20:11:13.163Z,26.65
2023-08-21T20:13:42.089Z,26.51
2023-08-21T20:16:10.459Z,26.48
2023-08-21T20:18:39.395Z,26.39
2023-08-21T20:21:07.004Z,26.39
2023-08-21T20:23:35.373Z,26.40
2023-08-21T20:26:03.379Z,26.50
2023-08-21T20:28:30.913Z,26.32
2023-08-21T20:31:02.718Z,26.55
2023-08-21T20:33:30.304Z,26.48
2023-08-21T20:35:58.280Z,26.17
2023-08-21T20:38:25.917Z,26.13
2023-08-21T20:40:54.091Z,26.10
2023-08-21T20:43:21.652Z,26.02
2023-08-21T20:45:49.174Z,25.95
2023-08-21T20:48:18.140Z,25.90
2023-08-21T20:50:45.707Z,25.83
2023-08-21T20:53:13.505Z,25.79
2023-08-21T20:55:41.098Z,25.75
2023-08-21T20:58:08.629Z,25.77
2023-08-21T21:00:36.145Z,25.85
2023-08-21T21:03:04.286Z,26.05
2023-08-21T21:05:35.235Z,26.17
2023-08-21T21:08:02.792Z,26.03
2023-08-21T21:10:30.424Z,25.72
2023-08-21T21:12:57.954Z,25.70
2023-08-21T21:15:25.554Z,26.07
2023-08-21T21:17:53.372Z,25.88
2023-08-21T21:20:20.947Z,25.44
2023-08-21T21:22:50.041Z,25.34
2023-08-21T21:25:17.651Z,25.34
2023-08-21T21:27:45.213Z,25.35
2023-08-21T21:30:12.908Z,25.24
2023-08-21T21:32:39.533Z,25.19
2023-08-21T21:35:08.271Z,25.15
2023-08-21T21:37:35.986Z,25.11
2023-08-21T21:40:05.785Z,25.43
2023-08-21T21:42:33.335Z,25.24
2023-08-21T21:45:00.855Z,25.17
2023-08-21T21:47:28.394Z,25.20
2023-08-21T21:49:56.021Z,25.13
2023-08-21T21:52:23.622Z,25.05
2023-08-21T21:54:51.169Z,25.13
2023-08-21T21:57:20.091Z,25.08
2023-08-21T21:59:47.642Z,25.07
2023-08-21T22:02:15.192Z,25.09
2023-08-21T22:04:42.751Z,25.13
2023-08-21T22:07:10.327Z,25.15
2023-08-21T22:09:37.862Z,24.92
2023-08-21T22:12:05.840Z,24.83
2023-08-21T22:14:35.341Z,24.73
2023-08-21T22:17:03.629Z,24.74
2023-08-21T22:19:31.640Z,24.65
2023-08-21T22:21:59.183Z,24.66
2023-08-21T22:26:08.038Z,24.42
2023-08-21T22:28:36.002Z,24.37
2023-08-21T22:31:03.990Z,24.35
2023-08-21T22:33:31.783Z,24.26
2023-08-21T22:35:59.504Z,24.23
2023-08-21T22:38:27.222Z,24.24
2023-08-21T22:40:55.019Z,24.20
2023-08-21T22:43:24.411Z,24.44
2023-08-21T22:45:52.143Z,24.31
2023-08-21T22:48:19.933Z,24.20
2023-08-21T22:50:47.685Z,24.19
2023-08-21T22:53:15.604Z,24.15
2023-08-21T22:55:43.592Z,24.14
2023-08-21T22:58:11.409Z,24.07
2023-08-21T23:00:40.478Z,24.03
2023-08-21T23:03:08.187Z,24.01
2023-08-21T23:05:36.005Z,24.05
2023-08-21T23:08:03.917Z,24.03
2023-08-21T23:10:32.106Z,23.98
2023-08-21T23:12:59.840Z,23.90
2023-08-21T23:15:27.553Z,24.10
2023-08-21T23:17:56.724Z,23.85
2023-08-21T23:20:24.969Z,23.85
2023-08-21T23:22:52.680Z,23.78
2023-08-21T23:25:20.356Z,23.82
2023-08-21T23:27:48.043Z,23.87
2023-08-21T23:30:16.055Z,23.73
2023-08-21T23:32:43.801Z,23.64
2023-08-21T23:35:13.034Z,23.54
2023-08-21T23:37:41.220Z,23.55
2023-08-21T23:40:10.366Z,23.52
2023-08-21T23:42:38.208Z,23.49
2023-08-21T23:45:07.064Z,23.56
2023-08-21T23:47:34.615Z,23.45
2023-08-21T23:50:06.044Z,23.44
2023-08-21T23:52:35.277Z,23.41
2023-08-21T23:55:04.929Z,23.35
2023-08-21T23:57:32.861Z,23.37
